Time;durP1;ratioP1;P1;durP2;ratioP2;P2;SDS_P1;SDS_P2;PMS_P1;PMS_P2;Temp;Humidity;BMP_temperature;BMP_pressure;BME280_temperature;BME280_humidity;BME280_pressure;Samples;Min_cycle;Max_cycle;Signal;HPM_P1;HPM_P2
2022/08/21 00:01:24;;;;;;;16.17;10.50;;;;;;;24.88;62.77;100451.75;5005818;28;20411;-61
2022/08/21 00:03:50;;;;;;;15.65;10.25;;;;;;;24.97;62.77;100455.56;5009972;28;20396;-61
2022/08/21 00:06:16;;;;;;;12.93;10.48;;;;;;;24.90;62.82;100460.44;5009732;28;20416;-61
2022/08/21 00:08:42;;;;;;;16.60;10.48;;;;;;;24.85;63.04;100459.63;5011137;28;20462;-60
2022/08/21 00:11:07;;;;;;;17.40;10.80;;;;;;;24.83;63.28;100470.75;5011242;28;20819;-60
2022/08/21 00:13:33;;;;;;;14.52;10.75;;;;;;;24.79;63.12;100469.66;5011845;28;20400;-61
2022/08/21 00:20:23;;;;;;;14.77;10.90;;;;;;;24.76;63.56;100476.44;5046772;28;20405;-61
2022/08/21 00:22:49;;;;;;;16.73;11.23;;;;;;;24.74;63.43;100477.78;5026113;28;20469;-60
2022/08/21 00:25:16;;;;;;;15.47;11.37;;;;;;;24.83;63.31;100459.06;5028666;28;20688;-61
2022/08/21 00:27:43;;;;;;;14.98;11.52;;;;;;;24.90;63.63;100462.31;5024884;28;20469;-62
2022/08/21 00:30:11;;;;;;;18.03;11.67;;;;;;;24.93;63.40;100459.09;5040824;28;20494;-62
2022/08/21 00:34:13;;;;;;;15.52;11.88;;;;;;;24.92;63.92;100452.03;5139735;27;20451;-61
2022/08/21 00:36:39;;;;;;;15.43;11.68;;;;;;;24.96;63.65;100455.84;5133855;27;20402;-62
2022/08/21 00:39:07;;;;;;;16.15;11.82;;;;;;;24.98;63.74;100454.47;5136002;27;20383;-62
2022/08/21 00:41:34;;;;;;;17.88;12.02;;;;;;;24.92;63.70;100450.16;5125975;27;20405;-62
2022/08/21 00:43:59;;;;;;;16.25;11.70;;;;;;;24.87;63.91;100446.63;5135295;27;20743;-62
2022/08/21 00:46:25;;;;;;;13.00;11.60;;;;;;;24.77;63.84;100431.97;5133531;27;20370;-62
2022/08/21 00:48:50;;;;;;;13.97;11.77;;;;;;;24.74;64.18;100424.41;5128738;27;20412;-61
2022/08/21 00:51:25;;;;;;;15.60;12.00;;;;;;;24.74;64.04;100429.81;5131676;27;20393;-61
2022/08/21 00:53:55;;;;;;;16.40;11.68;;;;;;;24.72;64.26;100426.56;5129742;27;20405;-61
2022/08/21 00:56:25;;;;;;;19.05;12.48;;;;;;;24.74;64.36;100429.81;5137104;27;20468;-61
2022/08/21 00:58:52;;;;;;;19.00;12.50;;;;;;;24.78;64.29;100416.53;5126668;27;20387;-62
2022/08/21 01:03:00;;;;;;;16.67;12.40;;;;;;;25.02;63.42;100424.09;5086228;28;20432;-61
2022/08/21 01:05:27;;;;;;;15.10;12.23;;;;;;;24.97;63.44;100419.47;5070557;28;20404;-62
2022/08/21 01:07:54;;;;;;;16.52;12.65;;;;;;;24.90;63.23;100411.66;5065622;28;20485;-62
2022/08/21 01:10:19;;;;;;;14.37;12.27;;;;;;;24.96;63.46;100396.19;5066640;28;20447;-62
2022/08/21 01:12:45;;;;;;;16.40;12.15;;;;;;;25.00;63.14;100391.81;5065425;28;20916;-61
2022/08/21 01:15:15;;;;;;;15.57;12.30;;;;;;;25.03;63.32;100390.44;5065268;28;20453;-61
2022/08/21 01:17:41;;;;;;;19.48;13.30;;;;;;;24.98;63.79;100392.09;5066584;28;20392;-61
2022/08/21 01:20:09;;;;;;;18.23;12.33;;;;;;;25.03;63.61;100385.88;5066888;28;20762;-62
2022/08/21 01:22:35;;;;;;;17.90;13.40;;;;;;;25.01;63.63;100371.75;5065957;28;20948;-61
2022/08/21 01:25:02;;;;;;;21.63;12.70;;;;;;;24.98;63.69;100370.41;5066195;28;20399;-62
2022/08/21 01:27:28;;;;;;;17.05;12.55;;;;;;;25.02;64.03;100369.88;5066348;28;20379;-62
2022/08/21 01:30:01;;;;;;;18.30;12.83;;;;;;;25.01;63.79;100371.75;5066717;28;20394;-61
2022/08/21 01:32:27;;;;;;;16.63;12.70;;;;;;;25.03;63.95;100385.03;5066302;28;20392;-61
2022/08/21 01:34:53;;;;;;;19.42;12.75;;;;;;;25.01;64.05;100379.88;5066287;28;20820;-61
2022/08/21 01:37:20;;;;;;;18.10;12.57;;;;;;;25.00;63.61;100373.66;5066241;28;20384;-61
2022/08/21 01:39:46;;;;;;;18.50;13.40;;;;;;;24.98;63.92;100373.13;5066721;28;20376;-60
2022/08/21 01:42:12;;;;;;;18.40;13.57;;;;;;;25.00;63.80;100387.22;5066167;28;20424;-61
2022/08/21 01:44:38;;;;;;;16.50;13.50;;;;;;;24.97;63.86;100384.22;5066133;28;20902;-62
2022/08/21 01:47:07;;;;;;;17.80;12.90;;;;;;;24.93;63.67;100378.53;5065903;28;20391;-62
2022/08/21 01:49:33;;;;;;;19.98;12.80;;;;;;;24.92;63.90;100381.53;5065968;28;20396;-60
2022/08/21 01:51:58;;;;;;;16.33;13.43;;;;;;;24.97;63.92;100387.78;5066106;28;21342;-61
2022/08/21 01:56:46;;;;;;;18.42;13.45;;;;;;;25.00;63.65;100392.63;5106665;27;20941;-60
2022/08/21 01:59:12;;;;;;;16.15;12.73;;;;;;;25.10;63.39;100391.81;5107676;28;20392;-62
2022/08/21 02:01:39;;;;;;;16.73;13.00;;;;;;;25.14;63.28;100397.50;5093434;28;20416;-62
2022/08/21 02:04:06;;;;;;;19.27;12.48;;;;;;;25.17;63.00;100397.75;5086902;28;20832;-61
2022/08/21 02:06:32;;;;;;;15.20;12.43;;;;;;;25.19;62.92;100394.75;5087232;28;20386;-60
2022/08/21 02:08:57;;;;;;;16.48;12.70;;;;;;;25.21;62.75;100405.31;5086567;28;20386;-60
2022/08/21 02:11:23;;;;;;;15.90;12.60;;;;;;;25.26;62.38;100416.19;5086493;28;20855;-60
2022/08/21 02:13:49;;;;;;;15.77;11.77;;;;;;;25.30;62.41;100420.81;5086713;28;20880;-61
2022/08/21 02:16:15;;;;;;;16.80;11.88;;;;;;;25.32;62.18;100424.06;5086949;28;20460;-61
2022/08/21 02:18:41;;;;;;;15.20;12.15;;;;;;;25.38;62.10;100422.16;5086937;28;20422;-60
2022/08/21 02:21:07;;;;;;;18.50;12.17;;;;;;;25.34;62.43;100421.06;5086128;28;20429;-60
2022/08/21 02:23:32;;;;;;;17.30;12.27;;;;;;;25.34;62.31;100412.94;5086182;28;20425;-60
2022/08/21 02:26:01;;;;;;;19.83;12.43;;;;;;;25.34;62.58;100424.59;5086630;28;20393;-60
2022/08/21 02:28:27;;;;;;;18.40;13.50;;;;;;;25.25;62.93;100428.16;5086578;28;20457;-60
2022/08/21 02:30:54;;;;;;;16.77;14.07;;;;;;;25.24;63.12;100429.19;5086490;28;20452;-61
2022/08/21 02:33:20;;;;;;;19.55;14.60;;;;;;;25.18;62.85;100415.66;5086732;28;20921;-59
2022/08/21 02:35:46;;;;;;;17.45;13.00;;;;;;;25.20;63.20;100415.38;5085936;28;21093;-61
2022/08/21 02:38:15;;;;;;;16.15;13.63;;;;;;;25.18;63.10;100412.94;5086067;28;20745;-61
2022/08/21 02:40:43;;;;;;;18.83;12.82;;;;;;;25.20;63.17;100409.94;5086149;28;20402;-60
2022/08/21 02:43:09;;;;;;;16.70;13.07;;;;;;;25.21;63.01;100398.03;5086530;28;20584;-60
2022/08/21 02:45:36;;;;;;;14.63;12.80;;;;;;;25.23;63.14;100400.44;5086064;28;20846;-60
2022/08/21 02:48:06;;;;;;;14.93;12.55;;;;;;;25.22;63.18;100396.91;5086041;28;20386;-60
2022/08/21 02:50:35;;;;;;;17.13;12.70;;;;;;;25.23;63.49;100395.00;5086411;28;20478;-59
2022/08/21 02:53:01;;;;;;;18.40;13.07;;;;;;;25.22;63.44;100396.13;5085970;28;20382;-60
2022/08/21 02:55:30;;;;;;;15.63;12.87;;;;;;;25.16;63.55;100398.84;5085684;28;20426;-60
2022/08/21 02:57:57;;;;;;;19.30;13.15;;;;;;;25.18;63.38;100402.09;5085927;28;20379;-61
2022/08/21 03:00:25;;;;;;;21.05;15.10;;;;;;;25.14;63.50;100400.22;5085810;28;20493;-61
2022/08/21 03:02:51;;;;;;;15.25;13.00;;;;;;;25.12;63.48;100402.38;5085847;28;20382;-60
2022/08/21 03:05:18;;;;;;;17.77;12.40;;;;;;;25.15;63.36;100404.53;5085569;28;20393;-61
2022/08/21 03:07:46;;;;;;;19.07;13.23;;;;;;;25.14;63.24;100397.50;5074483;28;20386;-61
2022/08/21 03:10:12;;;;;;;16.15;13.38;;;;;;;25.10;63.68;100391.81;5072327;28;20892;-61
2022/08/21 03:12:37;;;;;;;19.20;13.68;;;;;;;25.10;63.52;100399.13;5072788;28;20379;-59
2022/08/21 03:15:07;;;;;;;16.55;13.45;;;;;;;25.15;63.77;100396.41;5071008;28;20419;-60
2022/08/21 03:17:33;;;;;;;18.88;13.32;;;;;;;25.09;63.37;100392.88;5071143;28;20379;-61
2022/08/21 03:20:00;;;;;;;17.17;13.50;;;;;;;25.12;63.56;100392.34;5072361;28;20407;-60
2022/08/21 03:22:26;;;;;;;15.68;13.32;;;;;;;25.10;63.21;100393.69;5072250;28;20379;-60
2022/08/21 03:24:53;;;;;;;16.23;13.43;;;;;;;25.08;63.41;100387.72;5072294;28;20375;-61
2022/08/21 03:27:18;;;;;;;16.40;13.27;;;;;;;25.11;63.15;100395.31;5072147;28;20756;-60
2022/08/21 03:29:44;;;;;;;16.80;13.98;;;;;;;25.06;63.37;100393.44;5072530;28;20869;-60
2022/08/21 03:32:09;;;;;;;16.80;14.20;;;;;;;25.01;63.25;100393.44;5071831;28;20390;-63
2022/08/21 03:34:36;;;;;;;16.83;14.55;;;;;;;24.96;63.34;100382.63;5072032;28;20387;-61
2022/08/21 03:37:06;;;;;;;17.50;14.70;;;;;;;24.92;63.53;100387.78;5071810;28;20379;-62
2022/08/21 03:39:31;;;;;;;18.07;14.63;;;;;;;24.86;63.76;100382.63;5072006;28;20478;-60
2022/08/21 03:41:57;;;;;;;18.75;15.23;;;;;;;24.82;64.00;100382.38;5071913;28;20458;-60
2022/08/21 03:44:23;;;;;;;19.17;14.80;;;;;;;24.82;64.02;100378.84;5071524;28;20375;-61
2022/08/21 03:46:48;;;;;;;19.13;15.10;;;;;;;24.83;63.95;100388.59;5071811;28;20371;-61
2022/08/21 03:49:15;;;;;;;17.48;14.90;;;;;;;24.80;63.99;100381.84;5071554;28;20868;-61
2022/08/21 03:51:41;;;;;;;18.52;14.95;;;;;;;24.79;64.06;100374.78;5071518;28;20386;-60
2022/08/21 03:54:06;;;;;;;18.63;15.27;;;;;;;24.77;64.02;100379.66;5072009;28;20375;-61
2022/08/21 03:56:32;;;;;;;17.97;14.70;;;;;;;24.78;64.14;100392.13;5071675;28;20434;-60
2022/08/21 03:58:57;;;;;;;17.97;15.43;;;;;;;24.80;64.40;100390.78;5071964;28;20730;-60
2022/08/21 04:01:24;;;;;;;18.55;14.75;;;;;;;24.82;64.41;100386.97;5071581;28;20415;-60
2022/08/21 04:03:49;;;;;;;18.02;14.55;;;;;;;24.82;64.25;100381.56;5071507;28;20390;-62
2022/08/21 04:06:15;;;;;;;19.43;14.90;;;;;;;24.84;64.21;100388.31;5071234;28;20379;-60
2022/08/21 04:08:42;;;;;;;17.65;15.27;;;;;;;24.85;63.88;100381.00;5071382;28;20386;-60
2022/08/21 04:11:10;;;;;;;19.27;15.10;;;;;;;24.86;63.85;100379.91;5071295;28;20375;-60
2022/08/21 04:13:36;;;;;;;19.33;15.82;;;;;;;24.90;63.92;100381.00;5071270;28;20421;-62
2022/08/21 04:16:02;;;;;;;20.88;15.57;;;;;;;24.91;63.76;100385.34;5070923;28;20418;-60
2022/08/21 04:18:28;;;;;;;16.73;14.50;;;;;;;24.90;63.88;100375.56;5069109;28;20379;-61
2022/08/21 04:20:55;;;;;;;18.47;15.67;;;;;;;24.86;63.91;100371.78;5070874;28;20517;-61
2022/08/21 04:23:21;;;;;;;17.85;15.10;;;;;;;24.89;63.96;100373.97;5071012;28;20394;-60
2022/08/21 04:25:47;;;;;;;19.35;14.40;;;;;;;24.91;63.79;100379.91;5071144;28;20383;-61
2022/08/21 04:28:12;;;;;;;21.73;14.95;;;;;;;24.94;63.90;100373.97;5070784;28;20517;-60
2022/08/21 04:30:38;;;;;;;16.87;14.67;;;;;;;24.97;63.68;100378.81;5070937;28;20377;-60
2022/08/21 04:33:03;;;;;;;17.80;14.63;;;;;;;24.99;63.52;100379.34;5070877;28;20764;-60
2022/08/21 04:35:29;;;;;;;17.23;14.90;;;;;;;24.99;63.57;100388.31;5070976;28;20414;-60
2022/08/21 04:37:56;;;;;;;18.87;14.90;;;;;;;25.04;63.36;100386.66;5069433;28;20425;-61
2022/08/21 04:40:24;;;;;;;17.60;15.10;;;;;;;25.12;63.33;100391.50;5069850;28;20433;-61
2022/08/21 04:42:59;;;;;;;17.63;15.27;;;;;;;25.19;62.79;100381.19;5070202;28;20485;-61
2022/08/21 04:45:34;;;;;;;20.73;16.05;;;;;;;25.28;62.89;100392.31;5070665;28;20386;-61
2022/08/21 04:48:03;;;;;;;18.38;14.38;;;;;;;25.31;62.79;100400.72;5070418;28;20466;-61
2022/08/21 04:51:09;;;;;;;15.27;13.63;;;;;;;25.25;62.55;100398.31;5070296;28;20821;-61
2022/08/21 04:53:49;;;;;;;16.48;14.32;;;;;;;25.33;62.71;100400.44;5007640;28;20404;-60
2022/08/21 04:56:32;;;;;;;17.02;14.55;;;;;;;25.48;62.50;100405.84;5065577;28;21023;-59
2022/08/21 04:59:03;;;;;;;16.87;15.03;;;;;;;25.56;61.90;100407.16;5070382;28;20903;-61
2022/08/21 05:01:33;;;;;;;19.30;15.55;;;;;;;25.50;62.27;100408.28;5070286;28;20386;-61
2022/08/21 05:04:01;;;;;;;17.33;14.38;;;;;;;25.46;62.22;100409.91;5070237;28;20383;-61
2022/08/21 05:06:31;;;;;;;16.40;13.90;;;;;;;25.41;62.20;100399.88;5070253;28;20417;-61
2022/08/21 05:08:57;;;;;;;15.57;13.60;;;;;;;25.45;62.09;100403.66;5069078;28;20391;-60
2022/08/21 05:11:23;;;;;;;17.27;14.40;;;;;;;25.53;61.81;100413.13;5070113;28;20371;-60
2022/08/21 05:13:49;;;;;;;17.13;14.97;;;;;;;25.58;61.70;100404.16;5069354;28;20761;-61
2022/08/21 05:16:16;;;;;;;17.15;13.73;;;;;;;25.53;61.64;100410.41;5068429;28;20919;-62
2022/08/21 05:18:42;;;;;;;17.70;13.70;;;;;;;25.54;61.58;100412.06;5067889;28;20942;-62
2022/08/21 05:21:09;;;;;;;16.48;14.68;;;;;;;25.58;61.86;100420.44;5067232;28;20379;-62
2022/08/21 05:23:35;;;;;;;17.00;14.03;;;;;;;25.60;61.81;100420.97;5068003;28;20447;-60
2022/08/21 05:26:01;;;;;;;16.37;13.90;;;;;;;25.61;61.76;100426.13;5070153;28;20391;-61
2022/08/21 05:28:26;;;;;;;18.67;13.85;;;;;;;25.64;61.79;100427.47;5068690;28;20821;-61
2022/08/21 05:30:53;;;;;;;16.10;13.50;;;;;;;25.69;61.79;100424.75;5069674;28;20379;-62
2022/08/21 05:33:18;;;;;;;18.05;13.57;;;;;;;25.73;61.73;100432.06;5069409;28;21015;-61
2022/08/21 05:35:44;;;;;;;17.20;12.93;;;;;;;25.84;61.05;100430.13;5067644;28;20490;-62
2022/08/21 05:38:09;;;;;;;19.23;13.32;;;;;;;25.95;60.67;100425.47;5068082;28;20946;-62
2022/08/21 05:40:35;;;;;;;14.23;12.70;;;;;;;26.02;60.36;100428.69;5068051;28;20371;-61
2022/08/21 05:43:01;;;;;;;18.43;13.80;;;;;;;26.01;60.54;100426.25;5067536;28;20387;-62
2022/08/21 05:45:32;;;;;;;17.90;13.57;;;;;;;26.06;60.27;100431.66;5067014;28;20375;-61
2022/08/21 05:47:58;;;;;;;19.08;13.45;;;;;;;26.21;60.11;100431.53;5067166;28;20371;-61
2022/08/21 05:50:23;;;;;;;19.17;14.23;;;;;;;26.45;59.58;100428.97;5068603;28;20379;-60
2022/08/21 05:52:49;;;;;;;16.13;13.57;;;;;;;27.14;57.83;100433.56;5069350;28;20891;-61
2022/08/21 05:55:14;;;;;;;15.70;13.43;;;;;;;28.18;55.02;100424.69;5069397;28;20418;-61
2022/08/21 05:57:41;;;;;;;17.73;13.00;;;;;;;30.26;49.72;100419.41;5069806;28;20379;-62
2022/08/21 06:00:12;;;;;;;15.20;12.00;;;;;;;30.09;49.62;100414.63;5069560;28;20387;-62
2022/08/21 06:02:38;;;;;;;14.75;12.13;;;;;;;29.69;50.20;100421.75;5069767;28;20375;-61
2022/08/21 06:05:04;;;;;;;16.50;12.23;;;;;;;29.02;51.71;100419.50;5069544;28;20387;-61
2022/08/21 06:07:30;;;;;;;15.20;11.63;;;;;;;28.86;52.25;100414.31;5069662;28;20853;-62
2022/08/21 06:09:56;;;;;;;14.70;11.80;;;;;;;29.04;51.40;100409.91;5069339;28;20378;-62
2022/08/21 06:12:21;;;;;;;14.35;11.57;;;;;;;29.12;51.27;100416.59;5069553;28;20492;-61
2022/08/21 06:14:47;;;;;;;15.47;11.77;;;;;;;29.76;49.51;100407.72;5069522;28;20414;-60
2022/08/21 06:17:14;;;;;;;14.00;11.60;;;;;;;30.63;47.22;100413.91;5069193;28;20383;-60
2022/08/21 06:19:40;;;;;;;14.57;10.93;;;;;;;33.85;40.35;100402.09;5069423;28;20398;-61
2022/08/21 06:22:05;;;;;;;12.40;10.37;;;;;;;31.74;44.43;100396.66;5069539;28;20375;-61
2022/08/21 06:24:31;;;;;;;15.27;10.60;;;;;;;30.53;46.81;100414.16;5069670;28;20474;-60
2022/08/21 06:26:57;;;;;;;11.93;10.05;;;;;;;30.84;45.90;100412.25;5069341;28;20379;-61
2022/08/21 06:29:23;;;;;;;14.33;10.63;;;;;;;32.58;42.27;100411.00;5069056;28;20371;-61
2022/08/21 06:31:50;;;;;;;12.20;9.60;;;;;;;36.08;35.41;100403.97;5069263;28;20378;-61
2022/08/21 06:34:16;;;;;;;12.20;9.35;;;;;;;36.16;34.82;100405.00;5069047;28;20383;-61
2022/08/21 06:36:41;;;;;;;14.75;9.50;;;;;;;34.85;37.43;100412.34;5068880;28;20407;-60
2022/08/21 06:39:07;;;;;;;14.03;9.53;;;;;;;37.16;33.71;100411.59;5069278;28;20516;-60
2022/08/21 06:41:32;;;;;;;11.90;9.03;;;;;;;40.90;28.00;100401.91;5069698;28;20378;-61
2022/08/21 06:43:58;;;;;;;10.93;8.10;;;;;;;44.51;22.86;100381.41;5073002;28;20896;-60
2022/08/21 06:46:28;;;;;;;11.50;7.78;;;;;;;46.70;20.20;100384.44;5072970;28;20482;-61
2022/08/21 06:48:54;;;;;;;11.75;7.38;;;;;;;46.17;20.39;100370.84;5072581;28;20429;-61
2022/08/21 06:51:20;;;;;;;10.88;7.55;;;;;;;45.74;20.86;100381.81;5073078;28;20382;-62
2022/08/21 06:53:45;;;;;;;12.13;7.57;;;;;;;47.34;18.62;100376.84;5072949;28;20379;-60
2022/08/21 06:56:12;;;;;;;14.07;8.00;;;;;;;45.84;20.15;100377.31;5072468;28;20430;-60
2022/08/21 06:58:37;;;;;;;10.02;6.90;;;;;;;43.15;23.19;100380.81;5072421;28;20746;-62
2022/08/21 07:01:03;;;;;;;11.43;7.00;;;;;;;39.31;27.95;100388.16;5072470;28;20930;-61
2022/08/21 07:03:40;;;;;;;11.75;7.55;;;;;;;37.18;30.44;100392.69;5072411;28;20466;-60
2022/08/21 07:06:08;;;;;;;8.33;6.73;;;;;;;36.21;32.23;100387.41;5072795;28;20386;-61
2022/08/21 07:08:34;;;;;;;8.93;6.80;;;;;;;41.69;24.55;100373.81;5072547;28;20494;-61
2022/08/21 07:11:02;;;;;;;9.73;6.30;;;;;;;40.23;25.92;100380.59;5072679;28;20409;-61
2022/08/21 07:13:28;;;;;;;10.07;6.72;;;;;;;39.12;26.85;100379.94;5072356;28;20379;-60
2022/08/21 07:15:53;;;;;;;8.13;6.30;;;;;;;38.20;28.51;100375.16;5071895;28;20407;-61
2022/08/21 07:18:19;;;;;;;10.37;6.40;;;;;;;36.46;30.65;100383.34;5072092;28;20379;-61
2022/08/21 07:20:46;;;;;;;10.45;6.97;;;;;;;35.32;32.23;100392.66;5072045;28;20884;-62
2022/08/21 07:23:26;;;;;;;7.95;6.70;;;;;;;36.13;31.15;100378.91;5071871;28;20379;-62
2022/08/21 07:25:52;;;;;;;8.63;6.50;;;;;;;35.21;32.56;100378.53;5072311;28;20394;-60
2022/08/21 07:28:17;;;;;;;11.27;7.15;;;;;;;34.32;33.86;100392.78;5071936;28;20900;-62
2022/08/21 07:30:43;;;;;;;8.00;6.70;;;;;;;33.94;34.27;100390.19;5072080;28;20881;-62
2022/08/21 07:33:09;;;;;;;9.23;6.73;;;;;;;34.56;33.94;100385.78;5071820;28;20419;-61
2022/08/21 07:35:34;;;;;;;12.40;7.20;;;;;;;34.52;34.12;100390.31;5070197;28;20411;-62
2022/08/21 07:38:13;;;;;;;8.98;7.47;;;;;;;33.63;35.94;100392.16;5148003;27;20464;-63
2022/08/21 07:40:39;;;;;;;11.48;6.90;;;;;;;32.98;36.74;100385.25;5049442;28;20517;-63
2022/08/21 07:43:05;;;;;;;11.63;6.97;;;;;;;32.56;37.53;100388.59;5047021;28;20370;-63
2022/08/21 07:45:30;;;;;;;9.77;7.23;;;;;;;32.07;38.32;100388.00;5058443;28;20498;-63
2022/08/21 07:47:56;;;;;;;12.07;7.07;;;;;;;31.61;39.83;100379.22;5066277;28;20441;-62
2022/08/21 07:50:22;;;;;;;13.50;7.50;;;;;;;31.18;40.40;100393.59;5064327;28;20396;-63
2022/08/21 07:52:47;;;;;;;10.35;7.40;;;;;;;31.19;40.76;100398.75;5064287;28;20466;-63
2022/08/21 07:55:16;;;;;;;13.00;7.20;;;;;;;31.45;40.27;100390.59;5063173;28;20424;-62
2022/08/21 07:57:42;;;;;;;10.13;7.13;;;;;;;31.77;39.93;100382.31;5061088;28;20496;-63
2022/08/21 08:00:12;;;;;;;12.07;7.32;;;;;;;31.84;38.95;100379.91;5061835;28;20403;-63
2022/08/21 08:02:38;;;;;;;10.00;6.82;;;;;;;31.74;39.21;100385.69;5061565;28;20392;-62
2022/08/21 08:05:08;;;;;;;9.17;6.67;;;;;;;31.51;39.64;100374.88;5061391;28;20395;-63
2022/08/21 08:07:34;;;;;;;7.70;6.05;;;;;;;31.69;39.02;100378.41;5065409;28;20866;-60
2022/08/21 08:10:00;;;;;;;10.90;6.75;;;;;;;31.67;39.36;100380.69;5064554;28;20885;-62
2022/08/21 08:12:29;;;;;;;10.45;6.57;;;;;;;31.66;39.92;100381.00;5064411;28;20386;-62
2022/08/21 08:14:59;;;;;;;9.18;6.20;;;;;;;31.65;40.02;100374.72;5064492;28;20466;-61
2022/08/21 08:17:25;;;;;;;10.15;6.35;;;;;;;31.45;40.50;100381.59;5063561;28;20481;-59
2022/08/21 08:19:52;;;;;;;8.80;6.50;;;;;;;31.21;40.55;100384.75;5064755;28;20372;-61
2022/08/21 08:22:23;;;;;;;10.48;6.47;;;;;;;30.87;41.07;100384.25;5064789;28;20903;-62
2022/08/21 08:24:50;;;;;;;9.10;6.00;;;;;;;31.12;40.60;100386.66;5064439;28;20411;-60
2022/08/21 08:27:16;;;;;;;11.02;6.60;;;;;;;31.16;40.51;100379.41;5066226;28;20890;-61
2022/08/21 08:29:42;;;;;;;10.00;7.80;;;;;;;30.93;40.93;100376.75;5065924;28;20947;-62
2022/08/21 08:32:08;;;;;;;10.88;7.50;;;;;;;30.94;41.38;100377.56;5064536;28;20385;-60
2022/08/21 08:34:35;;;;;;;10.47;6.73;;;;;;;30.81;41.24;100377.31;5063907;28;20434;-61
2022/08/21 08:37:01;;;;;;;10.48;6.80;;;;;;;30.73;41.20;100377.28;5075025;28;20442;-61
2022/08/21 08:39:27;;;;;;;9.57;7.10;;;;;;;30.62;41.93;100380.25;5085863;28;20787;-61
2022/08/21 08:42:09;;;;;;;9.18;7.20;;;;;;;30.60;42.49;100373.50;5084633;28;20370;-62
2022/08/21 08:44:36;;;;;;;10.07;7.35;;;;;;;30.72;41.49;100367.44;5085108;28;20382;-61
2022/08/21 08:47:03;;;;;;;9.57;6.37;;;;;;;30.39;41.89;100368.53;5084323;28;20435;-62
2022/08/21 08:49:29;;;;;;;12.07;6.70;;;;;;;30.40;42.31;100364.69;5072467;28;20387;-61
2022/08/21 08:52:02;;;;;;;8.60;6.47;;;;;;;30.40;41.98;100374.84;5072418;28;20378;-62
2022/08/21 08:55:06;;;;;;;9.98;6.78;;;;;;;30.48;42.27;100371.31;5071874;28;20889;-61
2022/08/21 08:57:33;;;;;;;9.90;6.75;;;;;;;30.61;42.13;100370.47;5072176;28;20931;-60
2022/08/21 09:00:02;;;;;;;11.20;7.17;;;;;;;30.65;42.19;100365.16;5072095;28;20382;-61
2022/08/21 09:02:28;;;;;;;10.48;7.00;;;;;;;30.61;42.37;100370.47;5071854;28;20390;-61
2022/08/21 09:04:54;;;;;;;9.75;7.00;;;;;;;30.40;42.63;100359.22;5071897;28;20840;-61
2022/08/21 09:07:46;;;;;;;10.07;6.88;;;;;;;30.25;42.91;100365.03;5054196;28;20382;-60
2022/08/21 09:10:23;;;;;;;10.77;6.45;;;;;;;30.31;42.69;100358.34;5071871;28;20382;-60
2022/08/21 09:13:01;;;;;;;8.02;6.40;;;;;;;30.53;42.36;100356.72;5071840;28;20383;-60
2022/08/21 09:15:45;;;;;;;10.30;6.40;;;;;;;30.72;41.87;100349.09;5071323;28;20375;-62
2022/08/21 09:18:51;;;;;;;12.77;6.50;;;;;;;30.60;41.72;100340.69;5070277;28;20411;-61
2022/08/21 09:21:47;;;;;;;10.17;6.07;;;;;;;30.53;42.00;100343.06;5007758;28;20496;-60
2022/08/21 09:24:33;;;;;;;9.07;6.50;;;;;;;30.32;42.30;100338.06;5009837;28;20454;-60
2022/08/21 09:27:05;;;;;;;8.55;6.30;;;;;;;30.21;43.07;100340.25;5060421;28;20410;-59
2022/08/21 09:29:35;;;;;;;10.00;6.15;;;;;;;30.30;42.75;100340.31;5071794;28;20418;-60
2022/08/21 09:32:00;;;;;;;10.48;6.70;;;;;;;30.29;42.22;100335.97;5071674;28;20371;-60
2022/08/21 09:34:29;;;;;;;10.40;6.60;;;;;;;30.31;43.25;100331.78;5071328;28;20985;-61
2022/08/21 09:36:56;;;;;;;7.85;6.68;;;;;;;30.31;43.15;100331.78;5069006;28;20415;-62
2022/08/21 09:39:29;;;;;;;9.00;6.20;;;;;;;30.02;43.15;100326.78;5070789;28;20386;-60
2022/08/21 09:42:04;;;;;;;7.25;6.00;;;;;;;29.99;43.39;100321.91;5070904;28;20394;-60
2022/08/21 09:44:33;;;;;;;11.18;6.25;;;;;;;30.04;42.97;100326.47;5071213;28;20383;-61
2022/08/21 09:46:59;;;;;;;8.77;6.32;;;;;;;30.05;43.63;100317.13;5069948;28;20430;-62
2022/08/21 09:49:37;;;;;;;9.93;6.78;;;;;;;29.86;43.38;100315.41;5067950;28;20462;-61
2022/08/21 09:52:17;;;;;;;10.32;6.80;;;;;;;29.80;43.71;100310.34;5070661;28;20398;-60
2022/08/21 09:54:45;;;;;;;10.80;6.70;;;;;;;29.85;43.44;100302.84;5070399;28;20722;-60
2022/08/21 09:59:55;;;;;;;7.88;5.80;;;;;;;29.51;43.75;100306.06;5069742;28;20472;-60
2022/08/21 10:02:30;;;;;;;9.45;7.05;;;;;;;29.44;44.35;100297.47;5070372;28;20888;-61
2022/08/21 10:05:07;;;;;;;8.80;5.95;;;;;;;29.46;44.97;100301.53;5067736;28;20373;-61
2022/08/21 10:07:37;;;;;;;9.20;6.40;;;;;;;29.46;44.99;100311.63;5069303;28;20382;-61
2022/08/21 10:10:09;;;;;;;8.40;6.00;;;;;;;29.57;43.99;100296.66;5069767;28;20395;-62
2022/08/21 10:13:02;;;;;;;8.33;5.57;;;;;;;29.76;43.67;100298.44;5070338;28;20382;-60
2022/08/21 10:15:40;;;;;;;8.25;6.03;;;;;;;30.06;43.02;100305.09;5069653;28;20474;-61
2022/08/21 10:18:25;;;;;;;7.75;6.10;;;;;;;30.14;43.48;100298.88;5068265;28;20646;-60
2022/08/21 10:21:16;;;;;;;9.57;6.30;;;;;;;30.31;42.85;100290.78;5068392;28;20383;-63
2022/08/21 10:23:54;;;;;;;10.18;5.82;;;;;;;30.39;42.04;100302.09;5068353;28;20468;-61
2022/08/21 10:26:28;;;;;;;9.60;6.35;;;;;;;29.92;42.97;100291.47;5067182;28;20466;-61
2022/08/21 10:29:04;;;;;;;10.30;5.73;;;;;;;30.00;42.75;100290.75;5067982;28;20765;-61
2022/08/21 10:31:32;;;;;;;8.77;6.28;;;;;;;29.88;42.95;100298.69;5068829;28;20389;-61
2022/08/21 10:34:08;;;;;;;7.80;6.07;;;;;;;29.91;43.09;100287.97;5070149;28;20390;-62
2022/08/21 10:36:46;;;;;;;8.05;6.10;;;;;;;29.79;42.97;100295.91;5070142;28;20423;-61
2022/08/21 10:39:34;;;;;;;11.05;6.50;;;;;;;29.60;43.41;100278.81;5070300;28;20411;-62
2022/08/21 10:42:05;;;;;;;8.70;6.17;;;;;;;29.49;43.52;100287.25;5070175;28;20387;-61
2022/08/21 10:44:52;;;;;;;9.60;6.53;;;;;;;29.53;43.71;100280.06;5069952;28;20445;-61
2022/08/21 10:47:37;;;;;;;7.18;5.80;;;;;;;29.45;43.34;100280.78;5069713;28;20367;-59
2022/08/21 10:50:35;;;;;;;8.32;5.85;;;;;;;29.43;43.64;100284.97;5069608;28;20445;-60
2022/08/21 10:53:21;;;;;;;7.50;5.85;;;;;;;29.48;43.67;100273.94;5070018;28;20375;-59
2022/08/21 10:55:52;;;;;;;8.45;6.05;;;;;;;29.46;43.46;100284.31;5038267;28;20389;-59
2022/08/21 10:58:25;;;;;;;9.00;6.00;;;;;;;29.33;43.64;100269.59;5070011;28;20388;-59
2022/08/21 11:00:56;;;;;;;8.85;5.93;;;;;;;29.39;43.63;100264.81;5069364;28;20840;-60
2022/08/21 11:03:38;;;;;;;8.15;5.88;;;;;;;29.39;43.97;100265.66;5069684;28;20382;-60
2022/08/21 11:06:20;;;;;;;8.95;5.82;;;;;;;29.57;43.18;100252.94;5069699;28;20474;-60
2022/08/21 11:08:54;;;;;;;14.38;5.95;;;;;;;29.60;43.32;100254.25;5070146;28;20383;-60
2022/08/21 11:11:33;;;;;;;11.10;5.60;;;;;;;29.76;43.05;100238.34;5069635;28;20753;-59
2022/08/21 11:14:04;;;;;;;8.43;6.10;;;;;;;29.78;43.01;100227.91;5069783;28;20450;-60
2022/08/21 11:17:08;;;;;;;8.00;5.63;;;;;;;29.61;42.52;100228.56;5069818;28;20407;-60
2022/08/21 11:20:43;;;;;;;10.43;5.80;;;;;;;29.51;42.63;100222.22;5088503;27;20459;-60
2022/08/21 11:23:15;;;;;;;8.20;5.13;;;;;;;29.49;42.34;100227.16;5086376;28;20527;-60
2022/08/21 11:25:47;;;;;;;9.47;5.53;;;;;;;29.31;42.67;100217.22;5086455;28;20390;-60
2022/08/21 11:28:19;;;;;;;10.10;5.27;;;;;;;29.40;42.84;100228.22;5085113;28;20378;-58
2022/08/21 11:31:04;;;;;;;9.73;5.30;;;;;;;29.49;42.42;100218.19;5084819;28;20417;-59
2022/08/21 11:34:35;;;;;;;7.87;5.40;;;;;;;29.52;42.01;100220.31;5084341;28;20401;-60
2022/08/21 11:37:35;;;;;;;7.70;5.53;;;;;;;29.66;42.36;100222.97;4994227;28;20409;-59
2022/08/21 11:40:20;;;;;;;9.13;5.30;;;;;;;29.85;41.64;100217.34;5078797;28;20920;-59